No particular awareness of the weather is required.    There are no Weather-warnings


Meteo18 Weather Cam more information Meteo18 Weather Cam


Thunder radar more information blitzortung!


Rain radar more information rain snow radar


Visit our other weather sites:

Template documentation
and downloads

And another site



Weather Underground History page Text

Daily Summary for September 24, 2016 Units:  Metric    English   Both
« Previous Day
Next Day »
Daily Weekly Monthly Yearly Custom
  High: Low: Average:
Temperature: 25.9 °C 8.9 °C 17.5 °C
Dew Point: 12.1 °C 7.7 °C 9.8 °C
Humidity: 94 % 36 % 64 %
Wind Speed: 12.9 km/h 0.0 km/h 1.7 km/h
Wind Gust: 19.3 km/h - -
Wind:- - SE
Pressure: 1024.3 hPa 1017.2 hPa -
Precipitation: 0.0 mm    
Historical Graphs
 
 
Tabular Data for September 24, 2016
Time Temperature Dew Point Pressure Wind Wind Speed Wind Gust Humidity Rainfall Rate (Hourly)
00:02 14.4 °C 9.6 °C 1024.3 hPa Calm   3.2 km/h 73 % 0.0 mm
00:07 14.2 °C 9.4 °C 1024.3 hPa Calm   1.6 km/h 73 % 0.0 mm
00:17 13.9 °C 9.3 °C 1024.3 hPa North 1.6 km/h 1.6 km/h 74 % 0.0 mm
00:22 13.9 °C 9.5 °C 1024.3 hPa NNW 1.6 km/h 1.6 km/h 75 % 0.0 mm
00:27 13.8 °C 9.2 °C 1024.3 hPa NNW 1.6 km/h 1.6 km/h 74 % 0.0 mm
00:32 13.8 °C 9.2 °C 1024.3 hPa Calm   3.2 km/h 74 % 0.0 mm
00:37 13.6 °C 9.3 °C 1024.3 hPa Calm   3.2 km/h 75 % 0.0 mm
00:42 13.6 °C 9.4 °C 1024.3 hPa North 1.6 km/h 1.6 km/h 76 % 0.0 mm
00:47 13.7 °C 9.1 °C 1024.3 hPa WNW 1.6 km/h 1.6 km/h 74 % 0.0 mm
00:52 13.1 °C 9.2 °C 1024.3 hPa Calm   1.6 km/h 77 % 0.0 mm
00:57 13.1 °C 9.2 °C 1024.3 hPa Calm   1.6 km/h 77 % 0.0 mm
01:02 12.9 °C 9.3 °C 1024.3 hPa Calm   1.6 km/h 79 % 0.0 mm
01:07 12.7 °C 9.2 °C 1024.3 hPa Calm   1.6 km/h 79 % 0.0 mm
01:12 12.6 °C 9.2 °C 1024.3 hPa Calm   1.6 km/h 80 % 0.0 mm
01:17 12.4 °C 9.2 °C 1024.3 hPa WNW 3.2 km/h 3.2 km/h 81 % 0.0 mm
01:22 12.2 °C 9.2 °C 1023.9 hPa Calm   1.6 km/h 82 % 0.0 mm
01:27 12.1 °C 9.3 °C 1023.9 hPa Calm   3.2 km/h 83 % 0.0 mm
01:32 11.9 °C 9.1 °C 1023.9 hPa Calm   3.2 km/h 83 % 0.0 mm
01:37 11.7 °C 8.9 °C 1023.9 hPa Calm   1.6 km/h 83 % 0.0 mm
01:42 11.6 °C 9.0 °C 1023.9 hPa Calm   1.6 km/h 84 % 0.0 mm
01:47 11.6 °C 9.0 °C 1023.9 hPa WNW 1.6 km/h 1.6 km/h 84 % 0.0 mm
01:52 11.6 °C 9.0 °C 1023.9 hPa WNW 3.2 km/h 3.2 km/h 84 % 0.0 mm
02:02 11.5 °C 9.1 °C 1024.3 hPa WNW 3.2 km/h 3.2 km/h 85 % 0.0 mm
02:12 11.3 °C 8.9 °C 1024.3 hPa WNW 1.6 km/h 4.8 km/h 85 % 0.0 mm
02:17 11.9 °C 9.3 °C 1024.3 hPa Calm   4.8 km/h 84 % 0.0 mm
02:22 11.9 °C 8.7 °C 1024.3 hPa Calm   4.8 km/h 81 % 0.0 mm
02:27 11.8 °C 9.2 °C 1023.9 hPa Calm   3.2 km/h 84 % 0.0 mm
02:32 11.8 °C 9.0 °C 1023.9 hPa NW 1.6 km/h 3.2 km/h 83 % 0.0 mm
02:37 11.9 °C 9.1 °C 1023.9 hPa NW 1.6 km/h 1.6 km/h 83 % 0.0 mm
02:42 11.9 °C 8.9 °C 1023.9 hPa Calm   1.6 km/h 82 % 0.0 mm
02:52 11.6 °C 9.0 °C 1023.9 hPa Calm   3.2 km/h 84 % 0.0 mm
02:57 11.7 °C 9.1 °C 1023.9 hPa Calm   1.6 km/h 84 % 0.0 mm
03:02 11.7 °C 8.9 °C 1023.9 hPa Calm   1.6 km/h 83 % 0.0 mm
03:12 11.8 °C 8.8 °C 1023.9 hPa Calm   4.8 km/h 82 % 0.0 mm
03:17 11.7 °C 8.9 °C 1023.9 hPa Calm   1.6 km/h 83 % 0.0 mm
03:22 11.7 °C 8.7 °C 1023.9 hPa NNW 1.6 km/h 1.6 km/h 82 % 0.0 mm
03:27 11.6 °C 8.8 °C 1023.9 hPa WNW 1.6 km/h 4.8 km/h 83 % 0.0 mm
03:32 11.5 °C 9.1 °C 1023.6 hPa WNW 1.6 km/h 4.8 km/h 85 % 0.0 mm
03:37 11.6 °C 9.2 °C 1023.6 hPa Calm   1.6 km/h 85 % 0.0 mm
03:42 11.6 °C 8.8 °C 1023.6 hPa Calm   1.6 km/h 83 % 0.0 mm
03:47 11.6 °C 9.0 °C 1023.6 hPa Calm   1.6 km/h 84 % 0.0 mm
03:52 11.4 °C 8.8 °C 1023.6 hPa Calm   1.6 km/h 84 % 0.0 mm
03:57 11.1 °C 8.8 °C 1023.6 hPa Calm   1.6 km/h 86 % 0.0 mm
04:02 11.2 °C 9.1 °C 1023.6 hPa Calm   1.6 km/h 87 % 0.0 mm
04:12 11.3 °C 8.9 °C 1023.6 hPa Calm     85 % 0.0 mm
04:17 11.4 °C 9.1 °C 1023.6 hPa Calm   1.6 km/h 86 % 0.0 mm
04:22 11.3 °C 8.9 °C 1023.2 hPa Calm   1.6 km/h 85 % 0.0 mm
04:27 11.1 °C 8.8 °C 1023.2 hPa Calm   3.2 km/h 86 % 0.0 mm
04:32 11.1 °C 9.0 °C 1023.2 hPa Calm   3.2 km/h 87 % 0.0 mm
04:37 11.1 °C 9.0 °C 1023.2 hPa Calm   1.6 km/h 87 % 0.0 mm
04:42 11.1 °C 9.0 °C 1022.9 hPa Calm   1.6 km/h 87 % 0.0 mm
04:47 10.8 °C 8.9 °C 1022.9 hPa Calm     88 % 0.0 mm
04:52 10.8 °C 8.7 °C 1023.2 hPa Calm     87 % 0.0 mm
05:02 10.8 °C 8.9 °C 1023.2 hPa Calm     88 % 0.0 mm
05:12 10.7 °C 8.6 °C 1022.9 hPa Calm   1.6 km/h 87 % 0.0 mm
05:17 10.3 °C 8.4 °C 1022.9 hPa Calm   1.6 km/h 88 % 0.0 mm
05:22 10.3 °C 8.7 °C 1022.9 hPa Calm   1.6 km/h 90 % 0.0 mm
05:32 10.2 °C 8.6 °C 1022.9 hPa Calm     90 % 0.0 mm
05:42 9.9 °C 8.3 °C 1022.9 hPa Calm     90 % 0.0 mm
05:52 9.6 °C 8.0 °C 1022.9 hPa Calm     90 % 0.0 mm
06:02 9.6 °C 8.0 °C 1022.9 hPa Calm   3.2 km/h 90 % 0.0 mm
06:12 9.3 °C 7.7 °C 1022.9 hPa Calm   1.6 km/h 90 % 0.0 mm
06:22 9.4 °C 8.2 °C 1022.9 hPa Calm     92 % 0.0 mm
06:32 9.3 °C 8.1 °C 1022.9 hPa East 1.6 km/h   92 % 0.0 mm
06:37 9.4 °C 8.2 °C 1022.9 hPa Calm   3.2 km/h 92 % 0.0 mm
06:42 9.3 °C 8.1 °C 1022.9 hPa East 1.6 km/h 3.2 km/h 92 % 0.0 mm
06:52 9.4 °C 8.2 °C 1022.9 hPa Calm   3.2 km/h 92 % 0.0 mm
07:02 9.2 °C 8.0 °C 1022.9 hPa ESE 1.6 km/h 3.2 km/h 92 % 0.0 mm
07:12 8.9 °C 7.7 °C 1022.9 hPa East 3.2 km/h 3.2 km/h 92 % 0.0 mm
07:17 8.9 °C 7.8 °C 1022.9 hPa East 1.6 km/h 3.2 km/h 93 % 0.0 mm
07:22 9.0 °C 7.9 °C 1022.9 hPa Calm   3.2 km/h 93 % 0.0 mm
07:32 9.4 °C 8.5 °C 1022.9 hPa Calm   3.2 km/h 94 % 0.0 mm
07:42 9.1 °C 7.9 °C 1022.9 hPa Calm   3.2 km/h 92 % 0.0 mm
07:47 9.2 °C 8.1 °C 1022.9 hPa Calm   1.6 km/h 93 % 0.0 mm
07:52 9.2 °C 8.0 °C 1023.2 hPa Calm   1.6 km/h 92 % 0.0 mm
08:02 9.3 °C 8.2 °C 1023.2 hPa East 1.6 km/h 3.2 km/h 93 % 0.0 mm
08:12 9.9 °C 8.7 °C 1023.2 hPa East 3.2 km/h 3.2 km/h 92 % 0.0 mm
08:17 10.2 °C 8.8 °C 1023.2 hPa East 1.6 km/h 3.2 km/h 91 % 0.0 mm
08:22 10.4 °C 8.8 °C 1022.9 hPa East 1.6 km/h 3.2 km/h 90 % 0.0 mm
08:32 10.7 °C 9.1 °C 1023.2 hPa East 1.6 km/h 3.2 km/h 90 % 0.0 mm
08:42 11.2 °C 9.1 °C 1022.9 hPa Calm   3.2 km/h 87 % 0.0 mm
08:47 11.4 °C 9.3 °C 1023.2 hPa Calm   3.2 km/h 87 % 0.0 mm
08:52 12.0 °C 9.9 °C 1023.2 hPa Calm   3.2 km/h 87 % 0.0 mm
09:02 13.6 °C 10.4 °C 1023.2 hPa Calm   1.6 km/h 81 % 0.0 mm
09:12 12.9 °C 9.7 °C 1023.2 hPa Calm     81 % 0.0 mm
09:22 13.7 °C 10.5 °C 1023.2 hPa Calm     81 % 0.0 mm
09:32 14.7 °C 10.3 °C 1023.2 hPa Calm     75 % 0.0 mm
09:42 14.9 °C 10.7 °C 1023.2 hPa Calm     76 % 0.0 mm
09:47 14.9 °C 10.3 °C 1023.2 hPa ESE 4.8 km/h 4.8 km/h 74 % 0.0 mm
09:52 14.7 °C 10.3 °C 1023.2 hPa Calm   3.2 km/h 75 % 0.0 mm
09:57 14.7 °C 10.5 °C 1023.2 hPa East 1.6 km/h 6.4 km/h 76 % 0.0 mm
10:02 14.9 °C 10.7 °C 1022.9 hPa ESE 1.6 km/h 6.4 km/h 76 % 0.0 mm
10:12 15.3 °C 10.7 °C 1022.9 hPa East 1.6 km/h 6.4 km/h 74 % 0.0 mm
10:22 15.4 °C 10.8 °C 1022.9 hPa ESE 1.6 km/h 9.7 km/h 74 % 0.0 mm
10:32 16.1 °C 11.3 °C 1022.9 hPa ESE 1.6 km/h 8.0 km/h 73 % 0.0 mm
10:42 16.4 °C 11.3 °C 1022.9 hPa Calm   6.4 km/h 72 % 0.0 mm
10:47 16.7 °C 11.4 °C 1022.9 hPa Calm   6.4 km/h 71 % 0.0 mm
10:52 16.8 °C 11.7 °C 1022.9 hPa SE 3.2 km/h 6.4 km/h 72 % 0.0 mm
11:02 17.7 °C 11.9 °C 1022.9 hPa ESE 4.8 km/h 8.0 km/h 69 % 0.0 mm
11:12 18.4 °C 11.9 °C 1022.9 hPa East 1.6 km/h 8.0 km/h 66 % 0.0 mm
11:17 18.7 °C 12.0 °C 1022.9 hPa SE 1.6 km/h 11.3 km/h 65 % 0.0 mm
11:22 18.8 °C 11.6 °C 1022.9 hPa WSW 6.4 km/h 11.3 km/h 63 % 0.0 mm
11:32 19.6 °C 12.1 °C 1022.6 hPa Calm   11.3 km/h 62 % 0.0 mm
11:37 19.7 °C 12.0 °C 1022.6 hPa ENE 3.2 km/h 9.7 km/h 61 % 0.0 mm
11:42 19.7 °C 11.7 °C 1022.6 hPa South 4.8 km/h 9.7 km/h 60 % 0.0 mm
11:47 19.9 °C 11.6 °C 1022.6 hPa SE 6.4 km/h 12.9 km/h 59 % 0.0 mm
11:52 20.3 °C 12.0 °C 1022.6 hPa East 1.6 km/h 12.9 km/h 59 % 0.0 mm
11:57 20.7 °C 11.6 °C 1022.6 hPa ENE 4.8 km/h 12.9 km/h 56 % 0.0 mm
12:02 20.6 °C 11.5 °C 1022.6 hPa East 6.4 km/h 12.9 km/h 56 % 0.0 mm
12:07 20.8 °C 11.7 °C 1022.2 hPa Calm   11.3 km/h 56 % 0.0 mm
12:12 20.9 °C 11.2 °C 1022.2 hPa NE 3.2 km/h 11.3 km/h 54 % 0.0 mm
12:17 21.0 °C 11.3 °C 1022.2 hPa SSW 4.8 km/h 11.3 km/h 54 % 0.0 mm
12:22 21.2 °C 11.2 °C 1022.2 hPa ESE 6.4 km/h 11.3 km/h 53 % 0.0 mm
12:27 21.5 °C 11.5 °C 1022.2 hPa SE 3.2 km/h 11.3 km/h 53 % 0.0 mm
12:37 21.7 °C 11.1 °C 1022.2 hPa SE 4.8 km/h 11.3 km/h 51 % 0.0 mm
12:42 21.7 °C 10.8 °C 1022.2 hPa East 6.4 km/h 11.3 km/h 50 % 0.0 mm
12:47 22.1 °C 11.2 °C 1021.9 hPa East 1.6 km/h 11.3 km/h 50 % 0.0 mm
12:52 22.4 °C 10.8 °C 1021.9 hPa SSW 3.2 km/h 11.3 km/h 48 % 0.0 mm
12:57 22.4 °C 10.5 °C 1021.9 hPa East 4.8 km/h 11.3 km/h 47 % 0.0 mm
13:02 22.4 °C 11.2 °C 1021.9 hPa SE 6.4 km/h 11.3 km/h 49 % 0.0 mm
13:07 22.7 °C 10.8 °C 1021.9 hPa SSW 1.6 km/h 16.1 km/h 47 % 0.0 mm
13:12 23.2 °C 10.6 °C 1021.6 hPa SSE 1.6 km/h 16.1 km/h 45 % 0.0 mm
13:17 23.1 °C 10.8 °C 1021.6 hPa SE 1.6 km/h 16.1 km/h 46 % 0.0 mm
13:22 23.1 °C 10.5 °C 1021.6 hPa SSE 3.2 km/h 16.1 km/h 45 % 0.0 mm
13:27 23.2 °C 10.3 °C 1021.6 hPa SE 8.0 km/h 11.3 km/h 44 % 0.0 mm
13:32 22.9 °C 10.3 °C 1021.6 hPa SE 3.2 km/h 11.3 km/h 45 % 0.0 mm
13:37 22.9 °C 10.7 °C 1021.6 hPa NE 4.8 km/h 12.9 km/h 46 % 0.0 mm
13:42 23.2 °C 10.6 °C 1021.2 hPa ENE 4.8 km/h 12.9 km/h 45 % 0.0 mm
13:47 23.3 °C 10.0 °C 1021.2 hPa South 4.8 km/h 11.3 km/h 43 % 0.0 mm
13:52 23.3 °C 10.0 °C 1021.2 hPa ESE 1.6 km/h 11.3 km/h 43 % 0.0 mm
13:57 23.5 °C 9.8 °C 1020.9 hPa South 1.6 km/h 11.3 km/h 42 % 0.0 mm
14:02 23.6 °C 10.3 °C 1020.9 hPa East 1.6 km/h 11.3 km/h 43 % 0.0 mm
14:07 23.8 °C 10.8 °C 1020.9 hPa South 4.8 km/h 11.3 km/h 44 % 0.0 mm
14:12 23.8 °C 9.4 °C 1020.9 hPa East 1.6 km/h 11.3 km/h 40 % 0.0 mm
14:17 24.0 °C 9.6 °C 1020.9 hPa ENE 8.0 km/h 11.3 km/h 40 % 0.0 mm
14:22 24.1 °C 10.0 °C 1020.5 hPa SE 1.6 km/h 11.3 km/h 41 % 0.0 mm
14:32 24.3 °C 9.8 °C 1020.5 hPa SE 4.8 km/h 11.3 km/h 40 % 0.0 mm
14:37 24.7 °C 10.2 °C 1020.5 hPa SSE 1.6 km/h 11.3 km/h 40 % 0.0 mm
14:42 24.6 °C 9.7 °C 1020.2 hPa Calm   11.3 km/h 39 % 0.0 mm
14:47 24.5 °C 10.0 °C 1020.2 hPa SE 6.4 km/h 11.3 km/h 40 % 0.0 mm
14:52 24.8 °C 9.5 °C 1020.2 hPa Calm   11.3 km/h 38 % 0.0 mm
14:57 25.0 °C 9.3 °C 1020.2 hPa SE 3.2 km/h 9.7 km/h 37 % 0.0 mm
15:02 25.1 °C 10.2 °C 1020.2 hPa ESE 4.8 km/h 9.7 km/h 39 % 0.0 mm
15:07 25.0 °C 10.1 °C 1019.9 hPa ESE 3.2 km/h 12.9 km/h 39 % 0.0 mm
15:12 24.9 °C 9.6 °C 1019.9 hPa East 4.8 km/h 12.9 km/h 38 % 0.0 mm
15:17 24.7 °C 9.8 °C 1019.9 hPa Calm   12.9 km/h 39 % 0.0 mm
15:22 24.7 °C 10.2 °C 1019.9 hPa East 3.2 km/h 12.9 km/h 40 % 0.0 mm
15:27 24.9 °C 10.4 °C 1019.9 hPa SE 3.2 km/h 12.9 km/h 40 % 0.0 mm
15:32 25.2 °C 10.6 °C 1019.9 hPa South 3.2 km/h 12.9 km/h 40 % 0.0 mm
15:37 25.2 °C 11.0 °C 1019.5 hPa South 4.8 km/h 11.3 km/h 41 % 0.0 mm
15:42 25.3 °C 10.0 °C 1019.5 hPa East 8.0 km/h 11.3 km/h 38 % 0.0 mm
15:52 24.9 °C 10.4 °C 1019.5 hPa East 3.2 km/h 16.1 km/h 40 % 0.0 mm
15:57 24.8 °C 10.7 °C 1019.2 hPa East 9.7 km/h 17.7 km/h 41 % 0.0 mm
16:02 25.1 °C 10.2 °C 1019.2 hPa ESE 3.2 km/h 17.7 km/h 39 % 0.0 mm
16:07 25.1 °C 10.6 °C 1019.2 hPa ENE 3.2 km/h 17.7 km/h 40 % 0.0 mm
16:12 24.9 °C 10.0 °C 1019.2 hPa SW 4.8 km/h 17.7 km/h 39 % 0.0 mm
16:17 25.2 °C 9.1 °C 1019.2 hPa SSE 9.7 km/h 16.1 km/h 36 % 0.0 mm
16:22 25.3 °C 9.6 °C 1019.2 hPa ENE 1.6 km/h 16.1 km/h 37 % 0.0 mm
16:32 25.6 °C 10.2 °C 1018.8 hPa Calm   9.7 km/h 38 % 0.0 mm
16:37 25.6 °C 9.8 °C 1018.8 hPa SW 3.2 km/h 16.1 km/h 37 % 0.0 mm
16:42 25.4 °C 10.0 °C 1018.8 hPa East 4.8 km/h 16.1 km/h 38 % 0.0 mm
16:47 25.3 °C 10.3 °C 1018.8 hPa East 6.4 km/h 14.5 km/h 39 % 0.0 mm
16:52 25.4 °C 10.0 °C 1018.8 hPa ESE 12.9 km/h 14.5 km/h 38 % 0.0 mm
16:57 25.6 °C 10.2 °C 1018.5 hPa SE 4.8 km/h 16.1 km/h 38 % 0.0 mm
17:02 25.6 °C 10.6 °C 1018.5 hPa East 4.8 km/h 16.1 km/h 39 % 0.0 mm
17:07 25.8 °C 10.4 °C 1018.5 hPa ESE 3.2 km/h 16.1 km/h 38 % 0.0 mm
17:12 25.9 °C 10.5 °C 1018.5 hPa WSW 3.2 km/h 16.1 km/h 38 % 0.0 mm
17:17 25.8 °C 10.4 °C 1018.5 hPa East 8.0 km/h 12.9 km/h 38 % 0.0 mm
17:22 25.4 °C 10.4 °C 1018.5 hPa SE 3.2 km/h 12.9 km/h 39 % 0.0 mm
17:32 25.6 °C 10.2 °C 1018.2 hPa SSE 4.8 km/h 17.7 km/h 38 % 0.0 mm
17:42 25.7 °C 10.3 °C 1018.2 hPa ENE 4.8 km/h 12.9 km/h 38 % 0.0 mm
17:52 25.6 °C 10.6 °C 1018.2 hPa SE 3.2 km/h 19.3 km/h 39 % 0.0 mm
17:57 25.5 °C 10.5 °C 1018.2 hPa ESE 8.0 km/h 12.9 km/h 39 % 0.0 mm
18:02 25.3 °C 10.3 °C 1018.2 hPa East 3.2 km/h 12.9 km/h 39 % 0.0 mm
18:07 25.0 °C 10.1 °C 1017.8 hPa Calm   12.9 km/h 39 % 0.0 mm
18:12 24.9 °C 10.0 °C 1017.8 hPa ENE 4.8 km/h 12.9 km/h 39 % 0.0 mm
18:32 24.9 °C 10.4 °C 1017.8 hPa East 3.2 km/h 11.3 km/h 40 % 0.0 mm
18:37 24.8 °C 10.3 °C 1017.8 hPa ESE 1.6 km/h 11.3 km/h 40 % 0.0 mm
18:42 24.4 °C 10.3 °C 1017.8 hPa SE 1.6 km/h 12.9 km/h 41 % 0.0 mm
18:47 24.3 °C 10.2 °C 1017.8 hPa SE 1.6 km/h 11.3 km/h 41 % 0.0 mm
18:52 24.1 °C 10.4 °C 1017.8 hPa SSE 3.2 km/h 11.3 km/h 42 % 0.0 mm
18:57 23.8 °C 10.1 °C 1017.8 hPa East 1.6 km/h 16.1 km/h 42 % 0.0 mm
19:02 23.6 °C 10.3 °C 1017.5 hPa East 3.2 km/h 16.1 km/h 43 % 0.0 mm
19:07 23.3 °C 10.0 °C 1017.5 hPa ESE 1.6 km/h 9.7 km/h 43 % 0.0 mm
19:12 22.9 °C 10.0 °C 1017.5 hPa SE 3.2 km/h 9.7 km/h 44 % 0.0 mm
19:17 22.6 °C 10.1 °C 1017.5 hPa East 3.2 km/h 9.7 km/h 45 % 0.0 mm
19:22 22.3 °C 9.8 °C 1017.5 hPa ESE 1.6 km/h 9.7 km/h 45 % 0.0 mm
19:27 21.9 °C 9.8 °C 1017.5 hPa East 1.6 km/h 9.7 km/h 46 % 0.0 mm
19:32 21.7 °C 9.9 °C 1017.5 hPa South 1.6 km/h 9.7 km/h 47 % 0.0 mm
19:37 21.5 °C 10.0 °C 1017.8 hPa Calm   8.0 km/h 48 % 0.0 mm
19:42 21.3 °C 9.8 °C 1017.8 hPa Calm   8.0 km/h 48 % 0.0 mm
19:47 21.0 °C 9.6 °C 1017.5 hPa ENE 1.6 km/h 8.0 km/h 48 % 0.0 mm
19:52 20.8 °C 9.7 °C 1017.5 hPa Calm   8.0 km/h 49 % 0.0 mm
19:57 20.4 °C 9.6 °C 1017.5 hPa Calm   6.4 km/h 50 % 0.0 mm
20:07 19.8 °C 9.4 °C 1017.8 hPa Calm   3.2 km/h 51 % 0.0 mm
20:12 19.5 °C 9.4 °C 1017.8 hPa Calm   3.2 km/h 52 % 0.0 mm
20:17 19.1 °C 9.3 °C 1017.8 hPa Calm   1.6 km/h 53 % 0.0 mm
20:22 18.8 °C 9.3 °C 1017.8 hPa Calm   1.6 km/h 54 % 0.0 mm
20:27 18.5 °C 9.3 °C 1017.8 hPa Calm     55 % 0.0 mm
20:32 18.4 °C 9.2 °C 1017.8 hPa Calm     55 % 0.0 mm
20:37 18.4 °C 9.2 °C 1017.8 hPa Calm   1.6 km/h 55 % 0.0 mm
20:42 18.6 °C 9.1 °C 1017.8 hPa Calm   1.6 km/h 54 % 0.0 mm
20:47 18.6 °C 9.1 °C 1017.8 hPa Calm   1.6 km/h 54 % 0.0 mm
20:52 18.4 °C 8.9 °C 1017.8 hPa Calm   1.6 km/h 54 % 0.0 mm
20:57 18.2 °C 9.0 °C 1017.8 hPa Calm     55 % 0.0 mm
21:07 17.8 °C 8.9 °C 1017.8 hPa Calm     56 % 0.0 mm
21:12 17.7 °C 8.8 °C 1017.8 hPa Calm     56 % 0.0 mm
21:17 17.4 °C 9.1 °C 1017.8 hPa Calm     58 % 0.0 mm
21:22 17.4 °C 9.1 °C 1017.8 hPa Calm     58 % 0.0 mm
21:32 16.9 °C 9.1 °C 1017.8 hPa Calm     60 % 0.0 mm
21:37 16.8 °C 9.2 °C 1017.8 hPa Calm     61 % 0.0 mm
21:42 16.7 °C 9.1 °C 1017.5 hPa Calm     61 % 0.0 mm
21:47 16.7 °C 9.1 °C 1017.8 hPa Calm     61 % 0.0 mm
21:52 16.7 °C 9.1 °C 1017.5 hPa Calm     61 % 0.0 mm
21:57 16.4 °C 9.1 °C 1017.5 hPa Calm     62 % 0.0 mm
22:02 16.6 °C 9.3 °C 1017.5 hPa Calm     62 % 0.0 mm
22:07 16.6 °C 9.3 °C 1017.5 hPa Calm     62 % 0.0 mm
22:12 16.8 °C 9.5 °C 1017.5 hPa Calm     62 % 0.0 mm
22:17 16.8 °C 9.5 °C 1017.5 hPa Calm     62 % 0.0 mm
22:22 17.1 °C 9.8 °C 1017.5 hPa Calm     62 % 0.0 mm
22:27 17.1 °C 9.8 °C 1017.5 hPa Calm     62 % 0.0 mm
22:37 17.0 °C 9.9 °C 1017.5 hPa Calm     63 % 0.0 mm
22:42 16.9 °C 10.0 °C 1017.2 hPa Calm     64 % 0.0 mm
22:47 16.8 °C 10.2 °C 1017.2 hPa Calm     65 % 0.0 mm
22:52 16.8 °C 10.2 °C 1017.2 hPa Calm     65 % 0.0 mm
22:57 16.8 °C 10.4 °C 1017.2 hPa Calm     66 % 0.0 mm
23:02 16.9 °C 10.5 °C 1017.2 hPa Calm     66 % 0.0 mm
23:12 16.8 °C 10.6 °C 1017.2 hPa Calm     67 % 0.0 mm
23:17 16.7 °C 10.5 °C 1017.2 hPa Calm     67 % 0.0 mm
23:22 16.6 °C 10.9 °C 1017.2 hPa Calm     69 % 0.0 mm
23:27 16.6 °C 10.7 °C 1017.2 hPa Calm     68 % 0.0 mm
23:32 16.6 °C 10.9 °C 1017.2 hPa Calm     69 % 0.0 mm
23:37 16.6 °C 10.9 °C 1017.2 hPa Calm     69 % 0.0 mm
23:42 15.8 °C 9.7 °C 1017.2 hPa Calm     67 % 0.0 mm
23:47 15.2 °C 10.6 °C 1017.2 hPa Calm   1.6 km/h 74 % 0.0 mm
23:52 15.9 °C 11.1 °C 1017.2 hPa Calm   1.6 km/h 73 % 0.0 mm
23:57 16.2 °C 10.9 °C 1017.2 hPa Calm   9.7 km/h 71 % 0.0 mm
Meteo18
Compliments of Weather Underground - 4 mb

Script developed by  Jim McMurry - jmcmurry@mwt.net Adapted for the template by  Wim van der Kuil - Leuven-Template.eu

You find our weather info also at:

European Weather Network

Weather Underground

Equipment we use:

Weather-station
Davis Vue

Weather-program
Meteohub

Weather-server
Raspberry PI 2 B+

Provider
1 and 1

Davis Vue

Meteohub

Raspberry PI 2 B+

1 and 1